Time;durP1;ratioP1;P1;durP2;ratioP2;P2;SDS_P1;SDS_P2;PMS_P1;PMS_P2;Temp;Humidity;BMP_temperature;BMP_pressure;BME280_temperature;BME280_humidity;BME280_pressure;Samples;Min_cycle;Max_cycle;Signal;HPM_P1;HPM_P2
2021/08/01 00:01:44;;;;;;;11.13;5.22;;;;;;;;;;5025064;28;20046;-70
2021/08/01 00:04:10;;;;;;;10.27;4.68;;;;;;;;;;5020225;28;20053;-70
2021/08/01 00:06:36;;;;;;;11.05;5.13;;;;;;;;;;5019194;28;20527;-70
2021/08/01 00:09:02;;;;;;;10.55;4.88;;;;;;;;;;5021789;28;20045;-70
2021/08/01 00:11:30;;;;;;;12.55;5.00;;;;;;;;;;5021162;28;20041;-70
2021/08/01 00:13:56;;;;;;;12.13;4.82;;;;;;;;;;5022206;28;20049;-70
2021/08/01 00:16:23;;;;;;;9.48;4.65;;;;;;;;;;5020364;28;20069;-70
2021/08/01 00:18:49;;;;;;;17.02;6.35;;;;;;;;;;5021309;28;20045;-70
2021/08/01 00:21:15;;;;;;;12.88;4.95;;;;;;;;;;5023454;28;20049;-70
2021/08/01 00:23:42;;;;;;;7.05;4.15;;;;;;;;;;5023720;28;20037;-70
2021/08/01 00:26:08;;;;;;;11.05;4.60;;;;;;;;;;5024361;28;20057;-70
2021/08/01 00:28:34;;;;;;;11.80;4.93;;;;;;;;;;5024127;28;20425;-70
2021/08/01 00:31:00;;;;;;;10.68;4.60;;;;;;;;;;5017336;28;20063;-70
2021/08/01 00:33:26;;;;;;;12.40;5.07;;;;;;;;;;5018222;28;20037;-70
2021/08/01 00:35:52;;;;;;;10.57;5.30;;;;;;;;;;5023102;28;20046;-70
2021/08/01 00:38:19;;;;;;;12.82;4.90;;;;;;;;;;5022425;28;20156;-70
2021/08/01 00:40:45;;;;;;;13.70;5.30;;;;;;;;;;5021864;28;20144;-70
2021/08/01 00:43:11;;;;;;;7.97;4.38;;;;;;;;;;5021808;28;20116;-70
2021/08/01 00:45:37;;;;;;;7.93;5.07;;;;;;;;;;5023461;28;20042;-70
2021/08/01 00:48:04;;;;;;;10.90;4.72;;;;;;;;;;5022138;28;20056;-70
2021/08/01 00:50:30;;;;;;;8.27;5.30;;;;;;;;;;5023379;28;20146;-70
2021/08/01 00:52:58;;;;;;;12.40;5.63;;;;;;;;;;5019786;28;20048;-70
2021/08/01 00:55:24;;;;;;;9.52;5.50;;;;;;;;;;5024231;28;20079;-70
2021/08/01 00:57:50;;;;;;;7.88;5.22;;;;;;;;;;5024967;28;20087;-70
2021/08/01 01:00:27;;;;;;;10.50;5.88;;;;;;;;;;5022196;28;20120;-70
2021/08/01 01:02:57;;;;;;;8.43;4.97;;;;;;;;;;5020605;28;20053;-70
2021/08/01 01:05:25;;;;;;;13.00;6.43;;;;;;;;;;5020365;28;20057;-70
2021/08/01 01:07:59;;;;;;;14.73;6.13;;;;;;;;;;5023055;28;20049;-70
2021/08/01 01:10:36;;;;;;;14.98;5.63;;;;;;;;;;5020985;28;20114;-70
2021/08/01 01:13:10;;;;;;;10.48;6.82;;;;;;;;;;5020719;28;20460;-70
2021/08/01 01:15:40;;;;;;;18.10;7.53;;;;;;;;;;5016218;28;20048;-70
2021/08/01 01:18:07;;;;;;;14.20;6.93;;;;;;;;;;5017760;28;20042;-70
2021/08/01 01:20:55;;;;;;;12.20;6.93;;;;;;;;;;5016492;28;20476;-70
2021/08/01 01:23:32;;;;;;;12.23;7.15;;;;;;;;;;5020496;28;20064;-70
2021/08/01 01:26:00;;;;;;;10.63;6.93;;;;;;;;;;5021556;28;20046;-70
2021/08/01 01:28:42;;;;;;;11.75;8.02;;;;;;;;;;5020969;28;20045;-70
2021/08/01 01:31:21;;;;;;;16.67;8.73;;;;;;;;;;5018521;28;20041;-70
2021/08/01 01:33:52;;;;;;;15.18;8.45;;;;;;;;;;5009775;28;20084;-70
2021/08/01 01:36:25;;;;;;;14.05;8.30;;;;;;;;;;5014855;28;20562;-70
2021/08/01 01:38:53;;;;;;;13.38;7.68;;;;;;;;;;5017525;28;20521;-70
2021/08/01 01:41:19;;;;;;;13.85;7.93;;;;;;;;;;5017775;28;20144;-70
2021/08/01 01:43:45;;;;;;;16.08;7.90;;;;;;;;;;5020296;28;20052;-70
2021/08/01 01:46:12;;;;;;;15.10;8.85;;;;;;;;;;5008105;28;20061;-70
2021/08/01 01:48:39;;;;;;;19.00;9.68;;;;;;;;;;5020853;28;20096;-70
2021/08/01 01:51:05;;;;;;;16.67;10.55;;;;;;;;;;5020340;28;20060;-70
2021/08/01 01:53:32;;;;;;;15.82;11.00;;;;;;;;;;5022207;28;20094;-70
2021/08/01 01:55:58;;;;;;;16.25;10.30;;;;;;;;;;5020564;28;20052;-70
2021/08/01 01:58:27;;;;;;;17.08;10.80;;;;;;;;;;5022508;28;20049;-70
2021/08/01 02:00:54;;;;;;;16.15;11.75;;;;;;;;;;5021395;28;20049;-70
2021/08/01 02:03:20;;;;;;;21.80;12.88;;;;;;;;;;5019960;28;20046;-70
2021/08/01 02:05:47;;;;;;;28.42;14.32;;;;;;;;;;5019631;28;20038;-70
2021/08/01 02:08:13;;;;;;;21.48;14.70;;;;;;;;;;5016802;28;20470;-70
2021/08/01 02:10:42;;;;;;;25.05;14.18;;;;;;;;;;5021892;28;20067;-70
2021/08/01 02:13:08;;;;;;;16.63;14.00;;;;;;;;;;5017479;28;20107;-70
2021/08/01 02:15:41;;;;;;;20.48;14.13;;;;;;;;;;5018842;28;20041;-70
2021/08/01 02:18:10;;;;;;;21.05;15.93;;;;;;;;;;5016285;28;20125;-70
2021/08/01 02:20:39;;;;;;;22.20;16.85;;;;;;;;;;5021707;28;20060;-70
2021/08/01 02:23:07;;;;;;;22.08;16.40;;;;;;;;;;5018376;28;20065;-70
2021/08/01 02:25:34;;;;;;;20.75;16.35;;;;;;;;;;5022324;28;20057;-70
2021/08/01 02:28:01;;;;;;;25.08;17.48;;;;;;;;;;5022239;28;20037;-70
2021/08/01 02:30:28;;;;;;;23.63;16.75;;;;;;;;;;5024894;28;20095;-70
2021/08/01 02:32:54;;;;;;;23.95;16.60;;;;;;;;;;5019445;28;20045;-70
2021/08/01 02:35:21;;;;;;;28.60;18.58;;;;;;;;;;5023181;28;20046;-70
2021/08/01 02:37:47;;;;;;;23.40;15.85;;;;;;;;;;5021278;28;20478;-70
2021/08/01 02:40:14;;;;;;;22.67;16.70;;;;;;;;;;5022442;28;20144;-70
2021/08/01 02:42:41;;;;;;;24.02;17.42;;;;;;;;;;5017503;28;20052;-70
2021/08/01 02:45:08;;;;;;;21.58;16.95;;;;;;;;;;5020392;28;20527;-70
2021/08/01 02:47:34;;;;;;;24.42;16.85;;;;;;;;;;5021601;28;20145;-70
2021/08/01 02:50:01;;;;;;;23.05;16.48;;;;;;;;;;5022720;28;20045;-70
2021/08/01 02:52:29;;;;;;;22.00;16.08;;;;;;;;;;5020752;28;20057;-71
2021/08/01 02:54:56;;;;;;;21.67;15.38;;;;;;;;;;5022604;28;20045;-70
2021/08/01 02:57:23;;;;;;;20.42;15.95;;;;;;;;;;5019956;28;20050;-70
2021/08/01 02:59:50;;;;;;;23.17;16.30;;;;;;;;;;5019541;28;20048;-70
2021/08/01 03:02:17;;;;;;;22.38;15.88;;;;;;;;;;5015401;28;20493;-70
2021/08/01 03:04:44;;;;;;;19.52;15.25;;;;;;;;;;5021920;28;20056;-70
2021/08/01 03:07:11;;;;;;;21.50;15.60;;;;;;;;;;5021440;28;20053;-70
2021/08/01 03:09:38;;;;;;;19.83;15.75;;;;;;;;;;5021103;28;20076;-70
2021/08/01 03:12:11;;;;;;;22.45;16.45;;;;;;;;;;5020112;28;20465;-70
2021/08/01 03:14:38;;;;;;;19.83;16.40;;;;;;;;;;5021414;28;20045;-70
2021/08/01 03:17:04;;;;;;;22.67;15.45;;;;;;;;;;5024930;28;20378;-70
2021/08/01 03:19:31;;;;;;;23.33;15.75;;;;;;;;;;5020174;28;20045;-70
2021/08/01 03:21:58;;;;;;;18.65;15.88;;;;;;;;;;5024297;28;20042;-70
2021/08/01 03:24:24;;;;;;;24.17;16.98;;;;;;;;;;5022782;28;20056;-70
2021/08/01 03:26:50;;;;;;;20.20;15.93;;;;;;;;;;5031960;28;20065;-70
2021/08/01 03:29:16;;;;;;;22.10;16.67;;;;;;;;;;5023633;28;20098;-70
2021/08/01 03:31:42;;;;;;;22.20;17.67;;;;;;;;;;5012147;28;20041;-70
2021/08/01 03:34:09;;;;;;;18.73;15.75;;;;;;;;;;5016330;28;20041;-70
2021/08/01 03:36:35;;;;;;;22.10;16.27;;;;;;;;;;5012108;28;20045;-70
2021/08/01 03:39:02;;;;;;;22.58;15.52;;;;;;;;;;5024615;28;20091;-70
2021/08/01 03:41:29;;;;;;;22.10;17.02;;;;;;;;;;5024303;28;20038;-70
2021/08/01 03:43:55;;;;;;;26.10;16.80;;;;;;;;;;5023945;28;20057;-70
2021/08/01 03:46:21;;;;;;;23.92;17.63;;;;;;;;;;5022443;28;20061;-70
2021/08/01 03:48:47;;;;;;;23.35;16.65;;;;;;;;;;5024704;28;20045;-70
2021/08/01 03:51:14;;;;;;;23.25;17.15;;;;;;;;;;5022230;28;20045;-70
2021/08/01 03:53:40;;;;;;;21.42;17.27;;;;;;;;;;5018237;28;20156;-71
2021/08/01 03:56:06;;;;;;;27.15;17.35;;;;;;;;;;5025292;28;20053;-70
2021/08/01 03:58:32;;;;;;;20.55;16.27;;;;;;;;;;5022585;28;20116;-70
2021/08/01 04:00:58;;;;;;;20.85;16.92;;;;;;;;;;5022815;28;20065;-70
2021/08/01 04:03:25;;;;;;;24.77;16.27;;;;;;;;;;5018999;28;20121;-70
2021/08/01 04:05:52;;;;;;;21.13;15.23;;;;;;;;;;5020130;28;20046;-70
2021/08/01 04:08:18;;;;;;;23.48;16.98;;;;;;;;;;5024620;28;20045;-70
2021/08/01 04:10:44;;;;;;;28.77;17.02;;;;;;;;;;5025368;28;20049;-70
2021/08/01 04:13:10;;;;;;;23.15;17.90;;;;;;;;;;5021997;28;20037;-70
2021/08/01 04:15:36;;;;;;;29.20;20.40;;;;;;;;;;5023005;28;20037;-70
2021/08/01 04:18:06;;;;;;;27.70;18.45;;;;;;;;;;5021438;28;20046;-71
2021/08/01 04:20:32;;;;;;;23.92;17.23;;;;;;;;;;5024257;28;20120;-70
2021/08/01 04:22:58;;;;;;;27.50;18.70;;;;;;;;;;5019537;28;20046;-70
2021/08/01 04:25:25;;;;;;;31.00;18.80;;;;;;;;;;5020628;28;20451;-70
2021/08/01 04:27:53;;;;;;;30.95;18.50;;;;;;;;;;5020267;28;20457;-70
2021/08/01 04:30:19;;;;;;;28.10;19.70;;;;;;;;;;5017757;28;20041;-70
2021/08/01 04:32:45;;;;;;;26.88;19.60;;;;;;;;;;5022213;28;20072;-70
2021/08/01 04:35:11;;;;;;;26.20;18.67;;;;;;;;;;5023479;28;20072;-70
2021/08/01 04:37:38;;;;;;;24.95;17.63;;;;;;;;;;5022183;28;20141;-70
2021/08/01 04:40:05;;;;;;;28.98;19.08;;;;;;;;;;5021582;28;20077;-70
2021/08/01 04:42:31;;;;;;;27.85;19.63;;;;;;;;;;5020186;28;20041;-70
2021/08/01 04:44:57;;;;;;;30.08;18.85;;;;;;;;;;5019569;28;20053;-70
2021/08/01 04:47:23;;;;;;;31.55;20.10;;;;;;;;;;5021001;28;20069;-70
2021/08/01 04:49:50;;;;;;;29.35;19.05;;;;;;;;;;5022081;28;20132;-70
2021/08/01 04:52:17;;;;;;;22.25;17.38;;;;;;;;;;5024908;28;20045;-72
2021/08/01 04:54:43;;;;;;;26.10;19.50;;;;;;;;;;5018436;28;20454;-70
2021/08/01 04:57:09;;;;;;;26.98;18.70;;;;;;;;;;5017714;28;20049;-70
2021/08/01 04:59:36;;;;;;;27.35;19.02;;;;;;;;;;5021834;28;20057;-70
2021/08/01 05:02:02;;;;;;;25.35;18.42;;;;;;;;;;5023316;28;20041;-70
2021/08/01 05:04:30;;;;;;;27.27;19.70;;;;;;;;;;5016604;28;20050;-70
2021/08/01 05:06:56;;;;;;;24.58;17.50;;;;;;;;;;5020406;28;20112;-71
2021/08/01 05:09:23;;;;;;;26.27;18.48;;;;;;;;;;5020427;28;20069;-71
2021/08/01 05:11:49;;;;;;;26.20;19.63;;;;;;;;;;5020529;28;20045;-70
2021/08/01 05:14:15;;;;;;;24.27;19.25;;;;;;;;;;5020352;28;20365;-69
2021/08/01 05:16:42;;;;;;;27.92;18.60;;;;;;;;;;5020281;28;20115;-69
2021/08/01 05:19:08;;;;;;;25.42;19.42;;;;;;;;;;5022297;28;20049;-69
2021/08/01 05:21:34;;;;;;;27.75;20.35;;;;;;;;;;5021979;28;20095;-68
2021/08/01 05:24:01;;;;;;;28.92;20.52;;;;;;;;;;5020495;28;20079;-68
2021/08/01 05:26:27;;;;;;;34.05;20.45;;;;;;;;;;5020947;28;20053;-69
2021/08/01 05:28:53;;;;;;;25.80;18.40;;;;;;;;;;5016997;28;20772;-68
2021/08/01 05:31:19;;;;;;;29.40;20.15;;;;;;;;;;5019448;28;20056;-72
2021/08/01 05:33:45;;;;;;;27.85;19.10;;;;;;;;;;5009858;28;20049;-69
2021/08/01 05:36:12;;;;;;;28.48;18.73;;;;;;;;;;5018881;28;20052;-68
2021/08/01 05:38:38;;;;;;;28.65;19.40;;;;;;;;;;5014295;28;20073;-68
2021/08/01 05:41:05;;;;;;;24.50;18.55;;;;;;;;;;5036285;28;20051;-67
2021/08/01 05:43:34;;;;;;;30.00;19.23;;;;;;;;;;5017360;28;20045;-69
2021/08/01 05:46:00;;;;;;;27.58;19.50;;;;;;;;;;5021176;28;20076;-70
2021/08/01 05:48:26;;;;;;;32.92;21.02;;;;;;;;;;5019662;28;20049;-70
2021/08/01 05:50:52;;;;;;;23.92;18.00;;;;;;;;;;5021108;28;20121;-70
2021/08/01 05:53:21;;;;;;;27.20;19.52;;;;;;;;;;5022717;28;20095;-70
2021/08/01 05:55:49;;;;;;;27.10;18.35;;;;;;;;;;5022888;28;20095;-70
2021/08/01 05:58:15;;;;;;;24.98;18.08;;;;;;;;;;5023903;28;20041;-80
2021/08/01 06:00:41;;;;;;;23.65;17.88;;;;;;;;;;5022375;28;20046;-70
2021/08/01 06:03:07;;;;;;;23.65;17.50;;;;;;;;;;5016481;28;20107;-70
2021/08/01 06:05:34;;;;;;;23.35;17.98;;;;;;;;;;5019354;28;20041;-69
2021/08/01 06:08:01;;;;;;;26.10;17.25;;;;;;;;;;5021324;28;20052;-69
2021/08/01 06:10:27;;;;;;;25.00;16.25;;;;;;;;;;5025055;28;20052;-70
2021/08/01 06:12:53;;;;;;;20.00;14.35;;;;;;;;;;5022100;28;20070;-72
2021/08/01 06:15:20;;;;;;;19.98;14.38;;;;;;;;;;5018053;28;20045;-73
2021/08/01 06:17:46;;;;;;;17.38;14.02;;;;;;;;;;5021714;28;20045;-72
2021/08/01 06:20:13;;;;;;;18.42;13.43;;;;;;;;;;5016831;28;20037;-75
2021/08/01 06:22:39;;;;;;;19.10;12.80;;;;;;;;;;5018302;28;20113;-74
2021/08/01 06:25:05;;;;;;;16.08;12.25;;;;;;;;;;5035207;28;20049;-75
2021/08/01 06:27:31;;;;;;;15.77;12.63;;;;;;;;;;5019168;28;20048;-76
2021/08/01 06:29:58;;;;;;;16.98;12.95;;;;;;;;;;5018292;28;20483;-75
2021/08/01 06:32:24;;;;;;;19.95;14.13;;;;;;;;;;5017667;28;20111;-73
2021/08/01 06:34:50;;;;;;;20.85;13.45;;;;;;;;;;5014403;28;20401;-73
2021/08/01 06:37:17;;;;;;;17.40;12.13;;;;;;;;;;5013663;28;20478;-73
2021/08/01 06:39:44;;;;;;;17.10;11.73;;;;;;;;;;5015505;28;20046;-73
2021/08/01 06:42:10;;;;;;;16.60;11.88;;;;;;;;;;5014680;28;20048;-74
2021/08/01 06:44:36;;;;;;;21.23;13.35;;;;;;;;;;5028226;28;20152;-74
2021/08/01 06:47:03;;;;;;;18.70;12.60;;;;;;;;;;5029953;28;20038;-74
2021/08/01 06:49:29;;;;;;;17.85;12.82;;;;;;;;;;5029736;28;20045;-74
2021/08/01 06:51:55;;;;;;;19.33;8.68;;;;;;;;;;5033939;28;20133;-73
2021/08/01 06:54:21;;;;;;;9.95;5.13;;;;;;;;;;5033708;28;20050;-73
2021/08/01 06:56:48;;;;;;;12.30;4.88;;;;;;;;;;5020106;28;20050;-74
2021/08/01 06:59:14;;;;;;;18.27;5.18;;;;;;;;;;5032062;28;20082;-74
2021/08/01 07:01:40;;;;;;;10.82;5.22;;;;;;;;;;5022366;28;20045;-74
2021/08/01 07:04:07;;;;;;;11.85;4.70;;;;;;;;;;5016583;28;20413;-74
2021/08/01 07:06:33;;;;;;;11.20;3.78;;;;;;;;;;5021966;28;20104;-73
2021/08/01 07:09:00;;;;;;;11.27;4.05;;;;;;;;;;5024896;28;20065;-74
2021/08/01 07:11:26;;;;;;;8.77;3.90;;;;;;;;;;5033752;28;20072;-74
2021/08/01 07:13:52;;;;;;;8.90;3.90;;;;;;;;;;5027230;28;20057;-74
2021/08/01 07:16:18;;;;;;;9.60;3.97;;;;;;;;;;5022722;28;20042;-74
2021/08/01 07:18:44;;;;;;;11.00;3.60;;;;;;;;;;5018926;28;20113;-74
2021/08/01 07:21:11;;;;;;;8.88;4.00;;;;;;;;;;5025207;28;20041;-74
2021/08/01 07:23:37;;;;;;;8.95;3.60;;;;;;;;;;5016423;28;20072;-73
2021/08/01 07:26:03;;;;;;;9.07;3.60;;;;;;;;;;5015937;28;20053;-73
2021/08/01 07:28:29;;;;;;;8.48;3.40;;;;;;;;;;5016208;28;20046;-74
2021/08/01 07:30:55;;;;;;;10.80;3.90;;;;;;;;;;5031450;28;20041;-73
2021/08/01 07:33:22;;;;;;;9.23;3.95;;;;;;;;;;5020906;28;20052;-74
2021/08/01 07:35:48;;;;;;;9.85;4.22;;;;;;;;;;5025805;28;20042;-73
2021/08/01 07:38:14;;;;;;;7.35;3.90;;;;;;;;;;5016496;28;20045;-74
2021/08/01 07:40:41;;;;;;;9.10;3.67;;;;;;;;;;5014564;28;20049;-74
2021/08/01 07:43:08;;;;;;;10.23;4.65;;;;;;;;;;5017386;28;20046;-73
2021/08/01 07:45:34;;;;;;;9.75;4.13;;;;;;;;;;5019216;28;20494;-73
2021/08/01 07:48:01;;;;;;;12.70;4.55;;;;;;;;;;5028012;28;20071;-74
2021/08/01 07:50:28;;;;;;;9.90;3.83;;;;;;;;;;5014683;28;20049;-74
2021/08/01 07:52:54;;;;;;;8.43;3.60;;;;;;;;;;5019227;28;20094;-74
2021/08/01 07:55:20;;;;;;;7.85;3.50;;;;;;;;;;5031310;28;20075;-73
2021/08/01 07:57:47;;;;;;;8.98;3.78;;;;;;;;;;5026635;28;20516;-74
2021/08/01 08:00:13;;;;;;;7.97;3.38;;;;;;;;;;5025438;28;20117;-74
2021/08/01 08:02:40;;;;;;;5.95;2.30;;;;;;;;;;5016054;28;20079;-74
2021/08/01 08:05:07;;;;;;;4.85;1.77;;;;;;;;;;5031125;28;20042;-73
2021/08/01 08:07:33;;;;;;;6.28;2.00;;;;;;;;;;5013933;28;20042;-73
2021/08/01 08:10:00;;;;;;;4.70;2.00;;;;;;;;;;5023740;28;20060;-74
2021/08/01 08:12:26;;;;;;;3.65;1.70;;;;;;;;;;5020471;28;20041;-74
2021/08/01 08:14:52;;;;;;;6.45;1.70;;;;;;;;;;5017019;28;20076;-74
2021/08/01 08:17:19;;;;;;;6.45;1.50;;;;;;;;;;5021790;28;20478;-74
2021/08/01 08:19:45;;;;;;;4.55;1.55;;;;;;;;;;5023352;28;20076;-74
2021/08/01 08:22:12;;;;;;;5.00;1.45;;;;;;;;;;5015328;28;20042;-74
2021/08/01 08:24:38;;;;;;;3.22;1.20;;;;;;;;;;5028442;28;20076;-74
2021/08/01 08:27:04;;;;;;;7.80;1.38;;;;;;;;;;5024516;28;20124;-73
2021/08/01 08:29:31;;;;;;;4.47;1.10;;;;;;;;;;5016572;28;20567;-74
2021/08/01 08:31:58;;;;;;;6.07;1.02;;;;;;;;;;5020188;28;20100;-74
2021/08/01 08:34:24;;;;;;;5.32;1.40;;;;;;;;;;5016328;28;20099;-74
2021/08/01 08:36:51;;;;;;;3.80;1.30;;;;;;;;;;5019874;28;20057;-74
2021/08/01 08:39:18;;;;;;;4.10;1.25;;;;;;;;;;5020658;28;20049;-74
2021/08/01 08:41:44;;;;;;;3.00;0.88;;;;;;;;;;5014948;28;20037;-74
2021/08/01 08:44:11;;;;;;;4.32;0.98;;;;;;;;;;5015788;28;20347;-74
2021/08/01 08:46:37;;;;;;;7.40;1.40;;;;;;;;;;5018500;28;20049;-74
2021/08/01 08:49:09;;;;;;;3.38;1.00;;;;;;;;;;5020974;28;20034;-73
2021/08/01 08:51:36;;;;;;;4.10;1.65;;;;;;;;;;5014387;28;20057;-74
2021/08/01 08:54:03;;;;;;;4.25;1.30;;;;;;;;;;5015077;28;20078;-73
2021/08/01 08:56:30;;;;;;;5.00;1.60;;;;;;;;;;5017935;28;20075;-74
2021/08/01 08:58:56;;;;;;;3.67;1.20;;;;;;;;;;5031367;28;20034;-74
2021/08/01 09:01:22;;;;;;;4.70;1.65;;;;;;;;;;5019473;28;20070;-74
2021/08/01 09:03:49;;;;;;;2.58;1.30;;;;;;;;;;5032212;28;20120;-74
2021/08/01 09:06:16;;;;;;;3.55;1.15;;;;;;;;;;5019220;28;20050;-74
2021/08/01 09:08:42;;;;;;;5.32;1.30;;;;;;;;;;5016328;28;20080;-74
2021/08/01 09:11:09;;;;;;;2.28;0.85;;;;;;;;;;5025719;28;20061;-74
2021/08/01 09:13:43;;;;;;;4.50;1.10;;;;;;;;;;5014892;28;20415;-74
2021/08/01 09:16:10;;;;;;;2.75;1.20;;;;;;;;;;5021130;28;20124;-74
2021/08/01 09:18:36;;;;;;;2.38;1.00;;;;;;;;;;5016343;28;20041;-74
2021/08/01 09:21:02;;;;;;;3.20;1.27;;;;;;;;;;5015421;28;20069;-74
2021/08/01 09:23:28;;;;;;;5.43;1.25;;;;;;;;;;5021155;28;20493;-74
2021/08/01 09:25:57;;;;;;;3.10;1.10;;;;;;;;;;5010348;28;20104;-74
2021/08/01 09:28:24;;;;;;;2.55;0.90;;;;;;;;;;5017844;28;20061;-74
2021/08/01 09:30:56;;;;;;;4.35;1.17;;;;;;;;;;5025612;28;20144;-74
2021/08/01 09:33:42;;;;;;;4.07;1.20;;;;;;;;;;5018875;28;20049;-74
2021/08/01 09:36:16;;;;;;;3.38;1.20;;;;;;;;;;5020851;28;20056;-74
2021/08/01 09:38:44;;;;;;;5.55;1.40;;;;;;;;;;5021669;28;20038;-74
2021/08/01 09:41:10;;;;;;;4.22;1.42;;;;;;;;;;5015822;28;20060;-74
2021/08/01 09:43:44;;;;;;;8.07;2.25;;;;;;;;;;5028798;28;20057;-74
2021/08/01 09:46:10;;;;;;;;;;;;;;;;;;5017392;28;20414;-74
2021/08/01 09:48:36;;;;;;;6.18;1.02;;;;;;;;;;5011202;28;20008;-74
2021/08/01 09:51:04;;;;;;;5.70;1.50;;;;;;;;;;5014789;28;20137;-74
2021/08/01 09:53:30;;;;;;;4.28;1.10;;;;;;;;;;5012194;28;20038;-74
2021/08/01 09:56:14;;;;;;;3.17;1.10;;;;;;;;;;5014511;28;20046;-74
2021/08/01 09:58:40;;;;;;;2.33;1.00;;;;;;;;;;5016701;28;20046;-74
2021/08/01 10:01:07;;;;;;;3.03;1.10;;;;;;;;;;5028332;28;20140;-74
2021/08/01 10:03:37;;;;;;;7.25;1.42;;;;;;;;;;5022824;28;20045;-74
2021/08/01 10:06:10;;;;;;;4.80;1.20;;;;;;;;;;5029535;28;20121;-74
2021/08/01 10:08:38;;;;;;;4.97;1.17;;;;;;;;;;5014371;28;20462;-74
2021/08/01 10:11:11;;;;;;;4.85;1.38;;;;;;;;;;5014148;28;20072;-74
2021/08/01 10:13:38;;;;;;;3.28;0.90;;;;;;;;;;5017816;28;20057;-74
2021/08/01 10:16:07;;;;;;;4.30;1.08;;;;;;;;;;5020409;28;20042;-74
2021/08/01 10:18:33;;;;;;;3.60;1.30;;;;;;;;;;5018623;28;20132;-74
2021/08/01 10:20:59;;;;;;;5.57;1.27;;;;;;;;;;5010723;28;20049;-74
2021/08/01 10:23:26;;;;;;;4.40;1.10;;;;;;;;;;5020256;28;20049;-74
2021/08/01 10:25:53;;;;;;;3.60;1.20;;;;;;;;;;5015390;28;20107;-74
2021/08/01 10:28:22;;;;;;;3.55;1.30;;;;;;;;;;5013798;28;20088;-74
2021/08/01 10:30:49;;;;;;;4.88;1.30;;;;;;;;;;5028127;28;20072;-74
2021/08/01 10:33:19;;;;;;;4.45;1.00;;;;;;;;;;5026227;28;20045;-74
2021/08/01 10:35:49;;;;;;;3.28;1.08;;;;;;;;;;5029016;28;20089;-74
2021/08/01 10:38:17;;;;;;;6.43;1.20;;;;;;;;;;5022518;28;20041;-74
2021/08/01 10:40:43;;;;;;;3.75;1.17;;;;;;;;;;5018637;28;20148;-74
2021/08/01 10:43:12;;;;;;;4.43;1.20;;;;;;;;;;5016747;28;20049;-74
2021/08/01 10:45:43;;;;;;;3.58;1.10;;;;;;;;;;5032520;28;20187;-74
2021/08/01 10:48:09;;;;;;;5.07;1.50;;;;;;;;;;5017355;28;20048;-74
2021/08/01 10:50:36;;;;;;;6.25;1.10;;;;;;;;;;5032663;28;20048;-74
2021/08/01 10:53:22;;;;;;;3.45;1.13;;;;;;;;;;5028996;28;20415;-74
2021/08/01 10:55:48;;;;;;;7.07;1.60;;;;;;;;;;5020575;28;20117;-74
2021/08/01 10:58:15;;;;;;;5.10;1.23;;;;;;;;;;5018348;28;20512;-74
2021/08/01 11:00:55;;;;;;;6.13;1.52;;;;;;;;;;5014915;28;20486;-74
2021/08/01 11:03:22;;;;;;;8.23;1.75;;;;;;;;;;5018211;28;20041;-74
2021/08/01 11:05:48;;;;;;;4.05;1.55;;;;;;;;;;5020708;28;20351;-74
2021/08/01 11:08:14;;;;;;;5.35;1.38;;;;;;;;;;5020807;28;20091;-74
2021/08/01 11:10:43;;;;;;;2.78;1.17;;;;;;;;;;5018485;28;20473;-73
2021/08/01 11:13:42;;;;;;;6.75;1.30;;;;;;;;;;5017805;28;20041;-74
2021/08/01 11:16:10;;;;;;;2.70;1.30;;;;;;;;;;5038413;28;20049;-74
2021/08/01 11:18:38;;;;;;;3.90;1.33;;;;;;;;;;5022598;28;20053;-74
2021/08/01 11:21:05;;;;;;;2.83;1.23;;;;;;;;;;5024221;28;20041;-74
2021/08/01 11:23:55;;;;;;;5.60;1.15;;;;;;;;;;5019128;28;20042;-74
2021/08/01 11:26:21;;;;;;;4.82;1.60;;;;;;;;;;5021493;28;20086;-74
2021/08/01 11:29:04;;;;;;;7.72;1.70;;;;;;;;;;5016762;28;20107;-74
2021/08/01 11:31:30;;;;;;;3.53;1.40;;;;;;;;;;5024794;28;20132;-74
2021/08/01 11:33:56;;;;;;;4.53;1.33;;;;;;;;;;5022304;28;20044;-74
2021/08/01 11:36:24;;;;;;;3.85;1.30;;;;;;;;;;5025875;28;20082;-74
2021/08/01 11:38:50;;;;;;;3.80;1.10;;;;;;;;;;5015056;28;20048;-74
2021/08/01 11:41:26;;;;;;;4.88;1.48;;;;;;;;;;5018107;28;20060;-74
2021/08/01 11:43:59;;;;;;;5.95;1.50;;;;;;;;;;5024142;28;20045;-74
2021/08/01 11:46:26;;;;;;;5.82;1.42;;;;;;;;;;5027308;28;20073;-74
2021/08/01 11:48:57;;;;;;;3.90;1.15;;;;;;;;;;5025589;28;20033;-74
2021/08/01 11:51:24;;;;;;;5.72;1.50;;;;;;;;;;5017443;28;20107;-74
2021/08/01 11:53:50;;;;;;;4.90;1.10;;;;;;;;;;5017156;28;20068;-74
2021/08/01 11:56:18;;;;;;;10.23;2.03;;;;;;;;;;5019110;28;20545;-74
2021/08/01 11:58:45;;;;;;;4.15;1.38;;;;;;;;;;5017512;28;20061;-74
2021/08/01 12:01:12;;;;;;;6.03;1.42;;;;;;;;;;5014013;28;20112;-74
2021/08/01 12:03:38;;;;;;;4.57;1.60;;;;;;;;;;5021986;28;20037;-74
2021/08/01 12:06:04;;;;;;;6.72;1.63;;;;;;;;;;5016410;28;20045;-74
2021/08/01 12:08:32;;;;;;;6.07;1.70;;;;;;;;;;5039850;28;20045;-74
2021/08/01 12:11:06;;;;;;;6.80;1.52;;;;;;;;;;5022455;28;20052;-74
2021/08/01 12:13:32;;;;;;;4.88;1.02;;;;;;;;;;5025393;28;20132;-74
2021/08/01 12:15:58;;;;;;;4.03;1.02;;;;;;;;;;5025639;28;20208;-74
2021/08/01 12:18:26;;;;;;;5.75;1.38;;;;;;;;;;5028853;28;20144;-74
2021/08/01 12:20:52;;;;;;;6.07;1.45;;;;;;;;;;5015921;28;20420;-74
2021/08/01 12:23:19;;;;;;;6.25;1.00;;;;;;;;;;5021479;28;20029;-74
2021/08/01 12:25:46;;;;;;;6.30;1.58;;;;;;;;;;5022390;28;20477;-74
2021/08/01 12:28:13;;;;;;;8.52;1.40;;;;;;;;;;5015436;28;20041;-74
2021/08/01 12:30:45;;;;;;;3.45;1.33;;;;;;;;;;5020645;28;20050;-74
2021/08/01 12:33:11;;;;;;;6.07;1.33;;;;;;;;;;5014926;28;20038;-74
2021/08/01 12:35:39;;;;;;;4.55;1.33;;;;;;;;;;5016310;28;20054;-74
2021/08/01 12:38:08;;;;;;;4.90;1.40;;;;;;;;;;5024432;28;20053;-74
2021/08/01 12:40:36;;;;;;;7.13;1.52;;;;;;;;;;5022353;28;20107;-74
2021/08/01 12:43:06;;;;;;;6.78;1.30;;;;;;;;;;5018414;28;20707;-74
2021/08/01 12:45:35;;;;;;;4.70;1.15;;;;;;;;;;5022669;28;20136;-74
2021/08/01 12:48:03;;;;;;;4.63;1.27;;;;;;;;;;5012768;28;20068;-74
2021/08/01 12:50:30;;;;;;;5.65;1.30;;;;;;;;;;5023259;28;20492;-74
2021/08/01 12:52:56;;;;;;;5.18;1.08;;;;;;;;;;5013942;28;20090;-74
2021/08/01 12:55:24;;;;;;;4.40;1.42;;;;;;;;;;5018403;28;20045;-74
2021/08/01 12:58:05;;;;;;;3.90;1.00;;;;;;;;;;5017906;28;20042;-74
2021/08/01 13:00:31;;;;;;;5.97;1.67;;;;;;;;;;5015247;28;20072;-74
2021/08/01 13:02:58;;;;;;;5.80;1.52;;;;;;;;;;5024337;28;20091;-74
2021/08/01 13:05:27;;;;;;;8.65;1.45;;;;;;;;;;5019045;28;20053;-74
2021/08/01 13:07:55;;;;;;;8.23;1.60;;;;;;;;;;5014597;28;20107;-74
2021/08/01 13:10:21;;;;;;;12.27;2.22;;;;;;;;;;5025371;28;20053;-74
2021/08/01 13:13:07;;;;;;;6.70;1.48;;;;;;;;;;5012553;28;20042;-74
2021/08/01 13:15:35;;;;;;;4.82;1.60;;;;;;;;;;5020679;28;20049;-74
2021/08/01 13:18:04;;;;;;;6.55;1.45;;;;;;;;;;5021439;28;20038;-74
2021/08/01 13:20:32;;;;;;;5.82;1.48;;;;;;;;;;5023337;28;20045;-74
2021/08/01 13:22:59;;;;;;;9.20;1.30;;;;;;;;;;5019028;28;20090;-74
2021/08/01 13:25:33;;;;;;;6.38;1.60;;;;;;;;;;5011760;28;20057;-74
2021/08/01 13:27:59;;;;;;;7.97;1.33;;;;;;;;;;5019371;28;20132;-74
2021/08/01 13:30:25;;;;;;;11.13;1.77;;;;;;;;;;5015590;28;20093;-74
2021/08/01 13:32:51;;;;;;;5.43;1.17;;;;;;;;;;5016410;28;20035;-74
2021/08/01 13:35:22;;;;;;;13.55;1.83;;;;;;;;;;5019595;28;20064;-74
2021/08/01 13:38:01;;;;;;;4.50;1.38;;;;;;;;;;5016612;28;20045;-74
2021/08/01 13:40:28;;;;;;;5.55;1.40;;;;;;;;;;5016100;28;20049;-74
2021/08/01 13:42:54;;;;;;;5.95;1.40;;;;;;;;;;5016070;28;20125;-74
2021/08/01 13:45:25;;;;;;;5.70;1.40;;;;;;;;;;5017622;28;20121;-74
2021/08/01 13:47:52;;;;;;;5.97;1.33;;;;;;;;;;5019173;28;20104;-74
2021/08/01 13:50:19;;;;;;;5.43;1.45;;;;;;;;;;5013524;28;20053;-74
2021/08/01 13:52:46;;;;;;;5.95;1.33;;;;;;;;;;5018217;28;20139;-74
2021/08/01 13:55:13;;;;;;;9.30;2.20;;;;;;;;;;5011515;28;20092;-74
2021/08/01 13:57:39;;;;;;;7.13;1.40;;;;;;;;;;5011247;28;20378;-74
2021/08/01 14:00:06;;;;;;;7.28;1.60;;;;;;;;;;5016117;28;20144;-74
2021/08/01 14:02:33;;;;;;;6.22;1.30;;;;;;;;;;5024115;28;20396;-74
2021/08/01 14:04:59;;;;;;;8.38;1.33;;;;;;;;;;5012234;28;20053;-74
2021/08/01 14:07:26;;;;;;;8.38;1.80;;;;;;;;;;5020388;28;20085;-74
2021/08/01 14:09:52;;;;;;;7.97;1.73;;;;;;;;;;5017959;28;20079;-74
2021/08/01 14:12:19;;;;;;;8.32;1.90;;;;;;;;;;5023969;28;20123;-74
2021/08/01 14:14:45;;;;;;;12.02;1.92;;;;;;;;;;5021792;28;20041;-74
2021/08/01 14:17:12;;;;;;;6.55;1.80;;;;;;;;;;5015747;28;20429;-74
2021/08/01 14:19:39;;;;;;;4.50;1.73;;;;;;;;;;5010445;28;20046;-74
2021/08/01 14:22:06;;;;;;;5.75;1.77;;;;;;;;;;5024944;28;20064;-74
2021/08/01 14:24:33;;;;;;;8.57;1.58;;;;;;;;;;5011756;28;20454;-74
2021/08/01 14:26:59;;;;;;;7.65;1.40;;;;;;;;;;5024782;28;20057;-74
2021/08/01 14:29:29;;;;;;;5.72;1.50;;;;;;;;;;5026874;28;20049;-74
2021/08/01 14:31:56;;;;;;;7.35;1.35;;;;;;;;;;5020885;28;20521;-74
2021/08/01 14:34:23;;;;;;;6.80;1.88;;;;;;;;;;5016065;28;20045;-74
2021/08/01 14:36:52;;;;;;;6.35;1.80;;;;;;;;;;5018414;28;20041;-74